sensor_id;sensor_type;location;lat;lon;timestamp;P1;durP1;ratioP1;P2;durP2;ratioP2
29574;SDS011;16507;51.046;6.406;2023-05-27T00:01:31;19.85;;;4.82;;
29574;SDS011;16507;51.046;6.406;2023-05-27T00:03:57;16.30;;;4.95;;
29574;SDS011;16507;51.046;6.406;2023-05-27T00:06:22;24.65;;;5.00;;
29574;SDS011;16507;51.046;6.406;2023-05-27T00:08:48;19.77;;;4.28;;
29574;SDS011;16507;51.046;6.406;2023-05-27T00:11:16;19.63;;;4.85;;
29574;SDS011;16507;51.046;6.406;2023-05-27T00:13:42;22.55;;;5.07;;
29574;SDS011;16507;51.046;6.406;2023-05-27T00:16:08;16.67;;;4.97;;
29574;SDS011;16507;51.046;6.406;2023-05-27T00:18:34;20.38;;;5.00;;
29574;SDS011;16507;51.046;6.406;2023-05-27T00:21:00;23.38;;;4.88;;
29574;SDS011;16507;51.046;6.406;2023-05-27T00:23:26;22.33;;;5.13;;
29574;SDS011;16507;51.046;6.406;2023-05-27T00:25:52;24.35;;;4.40;;
29574;SDS011;16507;51.046;6.406;2023-05-27T00:28:17;20.95;;;5.03;;
29574;SDS011;16507;51.046;6.406;2023-05-27T00:30:43;18.17;;;4.90;;
29574;SDS011;16507;51.046;6.406;2023-05-27T00:33:09;12.07;;;4.57;;
29574;SDS011;16507;51.046;6.406;2023-05-27T00:35:34;21.90;;;5.03;;
29574;SDS011;16507;51.046;6.406;2023-05-27T00:38:00;15.07;;;4.57;;
29574;SDS011;16507;51.046;6.406;2023-05-27T00:40:26;20.52;;;5.03;;
29574;SDS011;16507;51.046;6.406;2023-05-27T00:42:53;25.13;;;4.90;;
29574;SDS011;16507;51.046;6.406;2023-05-27T00:45:20;22.88;;;5.00;;
29574;SDS011;16507;51.046;6.406;2023-05-27T00:47:46;18.63;;;5.18;;
29574;SDS011;16507;51.046;6.406;2023-05-27T00:50:12;15.15;;;4.60;;
29574;SDS011;16507;51.046;6.406;2023-05-27T00:52:39;21.20;;;5.13;;
29574;SDS011;16507;51.046;6.406;2023-05-27T00:55:05;28.70;;;5.32;;
29574;SDS011;16507;51.046;6.406;2023-05-27T00:57:31;24.45;;;4.57;;
29574;SDS011;16507;51.046;6.406;2023-05-27T00:59:58;21.58;;;5.00;;
29574;SDS011;16507;51.046;6.406;2023-05-27T01:02:23;26.70;;;4.82;;
29574;SDS011;16507;51.046;6.406;2023-05-27T01:04:50;23.30;;;4.22;;
29574;SDS011;16507;51.046;6.406;2023-05-27T01:10:17;18.50;;;4.63;;
29574;SDS011;16507;51.046;6.406;2023-05-27T01:15:27;20.83;;;4.90;;
29574;SDS011;16507;51.046;6.406;2023-05-27T01:17:55;19.70;;;4.82;;
29574;SDS011;16507;51.046;6.406;2023-05-27T01:20:23;24.13;;;5.05;;
29574;SDS011;16507;51.046;6.406;2023-05-27T01:22:50;19.15;;;4.63;;
29574;SDS011;16507;51.046;6.406;2023-05-27T01:25:17;13.07;;;4.03;;
29574;SDS011;16507;51.046;6.406;2023-05-27T01:27:44;16.80;;;4.57;;
29574;SDS011;16507;51.046;6.406;2023-05-27T01:30:10;17.85;;;4.55;;
29574;SDS011;16507;51.046;6.406;2023-05-27T01:35:44;18.00;;;4.60;;
29574;SDS011;16507;51.046;6.406;2023-05-27T01:38:16;25.25;;;4.80;;
29574;SDS011;16507;51.046;6.406;2023-05-27T01:40:43;18.30;;;4.68;;
29574;SDS011;16507;51.046;6.406;2023-05-27T01:43:10;21.15;;;4.60;;
29574;SDS011;16507;51.046;6.406;2023-05-27T01:45:36;21.73;;;5.45;;
29574;SDS011;16507;51.046;6.406;2023-05-27T01:48:02;17.23;;;4.40;;
29574;SDS011;16507;51.046;6.406;2023-05-27T01:50:28;24.55;;;5.00;;
29574;SDS011;16507;51.046;6.406;2023-05-27T01:52:58;19.38;;;4.45;;
29574;SDS011;16507;51.046;6.406;2023-05-27T01:55:24;22.05;;;4.93;;
29574;SDS011;16507;51.046;6.406;2023-05-27T01:57:50;24.95;;;5.15;;
29574;SDS011;16507;51.046;6.406;2023-05-27T02:00:16;13.90;;;4.18;;
29574;SDS011;16507;51.046;6.406;2023-05-27T02:02:42;21.83;;;4.90;;
29574;SDS011;16507;51.046;6.406;2023-05-27T02:05:07;23.48;;;4.68;;
29574;SDS011;16507;51.046;6.406;2023-05-27T02:07:33;24.23;;;5.22;;
29574;SDS011;16507;51.046;6.406;2023-05-27T02:09:59;22.85;;;5.25;;
29574;SDS011;16507;51.046;6.406;2023-05-27T02:12:25;22.35;;;6.05;;
29574;SDS011;16507;51.046;6.406;2023-05-27T02:14:50;15.18;;;4.60;;
29574;SDS011;16507;51.046;6.406;2023-05-27T02:17:16;20.60;;;4.50;;
29574;SDS011;16507;51.046;6.406;2023-05-27T02:19:42;18.15;;;4.32;;
29574;SDS011;16507;51.046;6.406;2023-05-27T02:22:08;25.15;;;5.28;;
29574;SDS011;16507;51.046;6.406;2023-05-27T02:24:34;21.95;;;4.97;;
29574;SDS011;16507;51.046;6.406;2023-05-27T02:27:01;18.48;;;4.70;;
29574;SDS011;16507;51.046;6.406;2023-05-27T02:29:26;22.70;;;5.32;;
29574;SDS011;16507;51.046;6.406;2023-05-27T02:31:55;19.33;;;5.13;;
29574;SDS011;16507;51.046;6.406;2023-05-27T02:34:20;22.63;;;5.60;;
29574;SDS011;16507;51.046;6.406;2023-05-27T02:36:46;15.35;;;4.85;;
29574;SDS011;16507;51.046;6.406;2023-05-27T02:39:12;17.58;;;4.00;;
29574;SDS011;16507;51.046;6.406;2023-05-27T02:41:37;28.70;;;5.18;;
29574;SDS011;16507;51.046;6.406;2023-05-27T02:44:03;20.27;;;5.22;;
29574;SDS011;16507;51.046;6.406;2023-05-27T02:46:30;19.48;;;5.18;;
29574;SDS011;16507;51.046;6.406;2023-05-27T02:48:56;18.23;;;4.50;;
29574;SDS011;16507;51.046;6.406;2023-05-27T02:51:21;16.48;;;5.18;;
29574;SDS011;16507;51.046;6.406;2023-05-27T02:53:47;23.60;;;5.38;;
29574;SDS011;16507;51.046;6.406;2023-05-27T02:56:14;21.45;;;4.65;;
29574;SDS011;16507;51.046;6.406;2023-05-27T02:58:40;24.05;;;5.35;;
29574;SDS011;16507;51.046;6.406;2023-05-27T03:01:06;18.85;;;5.05;;
29574;SDS011;16507;51.046;6.406;2023-05-27T03:03:31;15.23;;;5.25;;
29574;SDS011;16507;51.046;6.406;2023-05-27T03:05:57;19.52;;;4.90;;
29574;SDS011;16507;51.046;6.406;2023-05-27T03:08:22;20.58;;;5.15;;
29574;SDS011;16507;51.046;6.406;2023-05-27T03:10:48;19.42;;;6.22;;
29574;SDS011;16507;51.046;6.406;2023-05-27T03:13:14;21.15;;;5.28;;
29574;SDS011;16507;51.046;6.406;2023-05-27T03:15:39;29.88;;;6.32;;
29574;SDS011;16507;51.046;6.406;2023-05-27T03:18:05;26.80;;;5.82;;
29574;SDS011;16507;51.046;6.406;2023-05-27T03:20:31;20.42;;;5.38;;
29574;SDS011;16507;51.046;6.406;2023-05-27T03:22:56;16.58;;;5.38;;
29574;SDS011;16507;51.046;6.406;2023-05-27T03:25:22;21.25;;;5.15;;
29574;SDS011;16507;51.046;6.406;2023-05-27T03:27:48;24.27;;;5.78;;
29574;SDS011;16507;51.046;6.406;2023-05-27T03:30:14;21.45;;;5.40;;
29574;SDS011;16507;51.046;6.406;2023-05-27T03:32:40;22.63;;;5.40;;
29574;SDS011;16507;51.046;6.406;2023-05-27T03:35:05;21.42;;;6.00;;
29574;SDS011;16507;51.046;6.406;2023-05-27T03:37:31;21.77;;;5.45;;
29574;SDS011;16507;51.046;6.406;2023-05-27T03:39:57;22.52;;;6.10;;
29574;SDS011;16507;51.046;6.406;2023-05-27T03:42:22;29.33;;;5.80;;
29574;SDS011;16507;51.046;6.406;2023-05-27T03:44:48;25.13;;;6.15;;
29574;SDS011;16507;51.046;6.406;2023-05-27T03:47:14;21.35;;;5.53;;
29574;SDS011;16507;51.046;6.406;2023-05-27T03:49:42;24.83;;;6.18;;
29574;SDS011;16507;51.046;6.406;2023-05-27T03:52:08;20.95;;;5.88;;
29574;SDS011;16507;51.046;6.406;2023-05-27T03:54:34;28.60;;;5.88;;
29574;SDS011;16507;51.046;6.406;2023-05-27T03:56:59;29.35;;;7.13;;
29574;SDS011;16507;51.046;6.406;2023-05-27T03:59:26;25.27;;;5.95;;
29574;SDS011;16507;51.046;6.406;2023-05-27T04:01:51;25.02;;;5.78;;
29574;SDS011;16507;51.046;6.406;2023-05-27T04:04:17;28.55;;;6.38;;
29574;SDS011;16507;51.046;6.406;2023-05-27T04:06:43;27.65;;;6.18;;
29574;SDS011;16507;51.046;6.406;2023-05-27T04:09:09;20.23;;;5.40;;
29574;SDS011;16507;51.046;6.406;2023-05-27T04:11:34;27.27;;;6.65;;
29574;SDS011;16507;51.046;6.406;2023-05-27T04:14:00;34.38;;;6.45;;
29574;SDS011;16507;51.046;6.406;2023-05-27T04:16:26;25.42;;;6.10;;
29574;SDS011;16507;51.046;6.406;2023-05-27T04:18:51;33.05;;;6.95;;
29574;SDS011;16507;51.046;6.406;2023-05-27T04:21:18;13.40;;;5.70;;
29574;SDS011;16507;51.046;6.406;2023-05-27T04:23:43;23.70;;;6.47;;
29574;SDS011;16507;51.046;6.406;2023-05-27T04:26:09;28.35;;;6.18;;
29574;SDS011;16507;51.046;6.406;2023-05-27T04:28:35;27.15;;;6.55;;
29574;SDS011;16507;51.046;6.406;2023-05-27T04:31:01;27.55;;;6.88;;
29574;SDS011;16507;51.046;6.406;2023-05-27T04:33:27;26.48;;;7.20;;
29574;SDS011;16507;51.046;6.406;2023-05-27T04:35:53;20.98;;;6.07;;
29574;SDS011;16507;51.046;6.406;2023-05-27T04:38:21;30.08;;;6.32;;
29574;SDS011;16507;51.046;6.406;2023-05-27T04:40:47;25.17;;;5.75;;
29574;SDS011;16507;51.046;6.406;2023-05-27T04:43:20;16.02;;;5.28;;
29574;SDS011;16507;51.046;6.406;2023-05-27T04:45:46;26.98;;;6.35;;
29574;SDS011;16507;51.046;6.406;2023-05-27T04:48:12;27.27;;;5.90;;
29574;SDS011;16507;51.046;6.406;2023-05-27T04:50:37;21.15;;;5.60;;
29574;SDS011;16507;51.046;6.406;2023-05-27T04:53:04;22.10;;;6.10;;
29574;SDS011;16507;51.046;6.406;2023-05-27T04:55:29;24.70;;;5.78;;
29574;SDS011;16507;51.046;6.406;2023-05-27T04:57:55;25.02;;;5.25;;
29574;SDS011;16507;51.046;6.406;2023-05-27T05:00:22;18.77;;;5.85;;
29574;SDS011;16507;51.046;6.406;2023-05-27T05:03:06;22.00;;;5.95;;
29574;SDS011;16507;51.046;6.406;2023-05-27T05:05:32;21.48;;;6.18;;
29574;SDS011;16507;51.046;6.406;2023-05-27T05:07:58;29.42;;;6.57;;
29574;SDS011;16507;51.046;6.406;2023-05-27T05:10:24;29.20;;;6.32;;
29574;SDS011;16507;51.046;6.406;2023-05-27T05:12:50;20.80;;;6.65;;
29574;SDS011;16507;51.046;6.406;2023-05-27T05:15:16;27.67;;;6.30;;
29574;SDS011;16507;51.046;6.406;2023-05-27T05:17:41;23.10;;;6.43;;
29574;SDS011;16507;51.046;6.406;2023-05-27T05:20:07;30.10;;;6.30;;
29574;SDS011;16507;51.046;6.406;2023-05-27T05:22:34;26.15;;;5.95;;
29574;SDS011;16507;51.046;6.406;2023-05-27T05:25:00;21.13;;;5.90;;
29574;SDS011;16507;51.046;6.406;2023-05-27T05:27:26;25.83;;;6.72;;
29574;SDS011;16507;51.046;6.406;2023-05-27T05:29:52;21.17;;;6.63;;
29574;SDS011;16507;51.046;6.406;2023-05-27T05:32:18;13.90;;;4.90;;
29574;SDS011;16507;51.046;6.406;2023-05-27T05:34:44;28.25;;;6.35;;
29574;SDS011;16507;51.046;6.406;2023-05-27T05:37:10;29.20;;;7.22;;
29574;SDS011;16507;51.046;6.406;2023-05-27T05:39:40;25.13;;;6.13;;
29574;SDS011;16507;51.046;6.406;2023-05-27T05:42:06;21.90;;;5.93;;
29574;SDS011;16507;51.046;6.406;2023-05-27T05:44:31;19.35;;;6.00;;
29574;SDS011;16507;51.046;6.406;2023-05-27T05:46:59;32.13;;;6.75;;
29574;SDS011;16507;51.046;6.406;2023-05-27T05:49:24;20.50;;;6.40;;
29574;SDS011;16507;51.046;6.406;2023-05-27T05:51:50;18.75;;;6.47;;
29574;SDS011;16507;51.046;6.406;2023-05-27T05:54:15;22.67;;;6.10;;
29574;SDS011;16507;51.046;6.406;2023-05-27T05:56:41;17.88;;;5.80;;
29574;SDS011;16507;51.046;6.406;2023-05-27T05:59:07;17.90;;;6.20;;
29574;SDS011;16507;51.046;6.406;2023-05-27T06:01:32;23.02;;;6.07;;
29574;SDS011;16507;51.046;6.406;2023-05-27T06:03:58;19.83;;;6.50;;
29574;SDS011;16507;51.046;6.406;2023-05-27T06:06:29;17.98;;;5.95;;
29574;SDS011;16507;51.046;6.406;2023-05-27T06:08:55;12.77;;;5.60;;
29574;SDS011;16507;51.046;6.406;2023-05-27T06:11:20;21.15;;;6.47;;
29574;SDS011;16507;51.046;6.406;2023-05-27T06:13:46;19.02;;;5.93;;
29574;SDS011;16507;51.046;6.406;2023-05-27T06:16:15;20.80;;;6.13;;
29574;SDS011;16507;51.046;6.406;2023-05-27T06:18:41;23.45;;;6.38;;
29574;SDS011;16507;51.046;6.406;2023-05-27T06:21:10;26.13;;;6.63;;
29574;SDS011;16507;51.046;6.406;2023-05-27T06:23:36;18.38;;;6.70;;
29574;SDS011;16507;51.046;6.406;2023-05-27T06:26:02;18.55;;;5.35;;
29574;SDS011;16507;51.046;6.406;2023-05-27T06:28:28;22.42;;;5.75;;
29574;SDS011;16507;51.046;6.406;2023-05-27T06:30:53;19.27;;;5.82;;
29574;SDS011;16507;51.046;6.406;2023-05-27T06:33:21;19.50;;;6.63;;
29574;SDS011;16507;51.046;6.406;2023-05-27T06:35:47;34.42;;;5.88;;
29574;SDS011;16507;51.046;6.406;2023-05-27T06:38:12;21.40;;;6.35;;
29574;SDS011;16507;51.046;6.406;2023-05-27T06:40:38;27.60;;;6.05;;
29574;SDS011;16507;51.046;6.406;2023-05-27T06:43:04;17.35;;;5.57;;
29574;SDS011;16507;51.046;6.406;2023-05-27T06:45:29;20.15;;;5.90;;
29574;SDS011;16507;51.046;6.406;2023-05-27T06:47:55;20.00;;;6.07;;
29574;SDS011;16507;51.046;6.406;2023-05-27T06:50:21;15.93;;;6.03;;
29574;SDS011;16507;51.046;6.406;2023-05-27T06:52:47;21.45;;;5.55;;
29574;SDS011;16507;51.046;6.406;2023-05-27T06:55:12;20.48;;;6.30;;
29574;SDS011;16507;51.046;6.406;2023-05-27T06:57:38;16.35;;;5.65;;
29574;SDS011;16507;51.046;6.406;2023-05-27T07:00:04;25.10;;;6.93;;
29574;SDS011;16507;51.046;6.406;2023-05-27T07:02:31;18.42;;;6.15;;
29574;SDS011;16507;51.046;6.406;2023-05-27T07:04:56;26.05;;;6.70;;
29574;SDS011;16507;51.046;6.406;2023-05-27T07:07:22;19.63;;;6.15;;
29574;SDS011;16507;51.046;6.406;2023-05-27T07:09:47;34.03;;;7.13;;
29574;SDS011;16507;51.046;6.406;2023-05-27T07:12:13;26.55;;;6.10;;
29574;SDS011;16507;51.046;6.406;2023-05-27T07:14:39;19.70;;;5.78;;
29574;SDS011;16507;51.046;6.406;2023-05-27T07:17:04;31.75;;;5.82;;
29574;SDS011;16507;51.046;6.406;2023-05-27T07:19:30;25.48;;;5.93;;
29574;SDS011;16507;51.046;6.406;2023-05-27T07:21:56;19.85;;;5.15;;
29574;SDS011;16507;51.046;6.406;2023-05-27T07:24:21;30.55;;;7.18;;
29574;SDS011;16507;51.046;6.406;2023-05-27T07:26:47;28.77;;;5.32;;
29574;SDS011;16507;51.046;6.406;2023-05-27T07:29:13;28.90;;;5.80;;
29574;SDS011;16507;51.046;6.406;2023-05-27T07:31:38;25.45;;;5.57;;
29574;SDS011;16507;51.046;6.406;2023-05-27T07:34:04;31.85;;;6.57;;
29574;SDS011;16507;51.046;6.406;2023-05-27T07:36:30;21.05;;;5.90;;
29574;SDS011;16507;51.046;6.406;2023-05-27T07:38:56;16.42;;;4.95;;
29574;SDS011;16507;51.046;6.406;2023-05-27T07:41:21;14.93;;;5.05;;
29574;SDS011;16507;51.046;6.406;2023-05-27T07:43:47;15.43;;;4.97;;
29574;SDS011;16507;51.046;6.406;2023-05-27T07:46:13;15.77;;;4.57;;
29574;SDS011;16507;51.046;6.406;2023-05-27T07:48:38;18.42;;;5.15;;
29574;SDS011;16507;51.046;6.406;2023-05-27T07:51:04;15.02;;;4.20;;
29574;SDS011;16507;51.046;6.406;2023-05-27T07:53:30;17.27;;;4.68;;
29574;SDS011;16507;51.046;6.406;2023-05-27T07:55:55;15.13;;;4.93;;
29574;SDS011;16507;51.046;6.406;2023-05-27T07:58:21;15.45;;;5.20;;
29574;SDS011;16507;51.046;6.406;2023-05-27T08:00:46;18.27;;;5.15;;
29574;SDS011;16507;51.046;6.406;2023-05-27T08:03:12;14.60;;;4.88;;
29574;SDS011;16507;51.046;6.406;2023-05-27T08:05:38;20.13;;;4.85;;
29574;SDS011;16507;51.046;6.406;2023-05-27T08:08:04;10.45;;;4.35;;
29574;SDS011;16507;51.046;6.406;2023-05-27T08:10:29;15.02;;;4.75;;
29574;SDS011;16507;51.046;6.406;2023-05-27T08:12:55;14.82;;;4.47;;
29574;SDS011;16507;51.046;6.406;2023-05-27T08:15:21;15.70;;;4.60;;
29574;SDS011;16507;51.046;6.406;2023-05-27T08:17:46;26.45;;;5.13;;
29574;SDS011;16507;51.046;6.406;2023-05-27T08:20:12;15.60;;;4.65;;
29574;SDS011;16507;51.046;6.406;2023-05-27T08:22:38;18.23;;;4.53;;
29574;SDS011;16507;51.046;6.406;2023-05-27T08:25:03;13.90;;;4.28;;
29574;SDS011;16507;51.046;6.406;2023-05-27T08:27:52;16.02;;;4.55;;
29574;SDS011;16507;51.046;6.406;2023-05-27T08:30:22;12.37;;;3.83;;
29574;SDS011;16507;51.046;6.406;2023-05-27T08:32:48;12.85;;;4.47;;
29574;SDS011;16507;51.046;6.406;2023-05-27T08:35:13;15.30;;;4.70;;
29574;SDS011;16507;51.046;6.406;2023-05-27T08:37:39;23.25;;;5.22;;
29574;SDS011;16507;51.046;6.406;2023-05-27T08:40:07;23.33;;;4.60;;
29574;SDS011;16507;51.046;6.406;2023-05-27T08:42:35;18.92;;;4.50;;
29574;SDS011;16507;51.046;6.406;2023-05-27T08:45:01;11.68;;;3.95;;
29574;SDS011;16507;51.046;6.406;2023-05-27T08:47:28;17.63;;;4.43;;
29574;SDS011;16507;51.046;6.406;2023-05-27T08:49:54;12.68;;;4.18;;
29574;SDS011;16507;51.046;6.406;2023-05-27T08:52:20;22.17;;;5.47;;
29574;SDS011;16507;51.046;6.406;2023-05-27T08:54:48;18.33;;;4.43;;
29574;SDS011;16507;51.046;6.406;2023-05-27T08:57:15;22.95;;;4.78;;
29574;SDS011;16507;51.046;6.406;2023-05-27T08:59:44;20.52;;;4.85;;
29574;SDS011;16507;51.046;6.406;2023-05-27T09:02:13;13.07;;;4.32;;
29574;SDS011;16507;51.046;6.406;2023-05-27T09:04:39;21.10;;;4.82;;
29574;SDS011;16507;51.046;6.406;2023-05-27T09:07:06;20.05;;;4.72;;
29574;SDS011;16507;51.046;6.406;2023-05-27T09:09:32;19.00;;;4.78;;
29574;SDS011;16507;51.046;6.406;2023-05-27T09:12:01;16.20;;;4.18;;
29574;SDS011;16507;51.046;6.406;2023-05-27T09:14:28;11.95;;;3.88;;
29574;SDS011;16507;51.046;6.406;2023-05-27T09:16:54;16.08;;;4.15;;
29574;SDS011;16507;51.046;6.406;2023-05-27T09:19:20;10.90;;;3.85;;
29574;SDS011;16507;51.046;6.406;2023-05-27T09:21:46;15.98;;;3.92;;
29574;SDS011;16507;51.046;6.406;2023-05-27T09:24:16;17.08;;;4.32;;
29574;SDS011;16507;51.046;6.406;2023-05-27T09:26:41;19.52;;;4.63;;
29574;SDS011;16507;51.046;6.406;2023-05-27T09:29:07;19.35;;;4.10;;
29574;SDS011;16507;51.046;6.406;2023-05-27T09:31:40;22.35;;;3.92;;
29574;SDS011;16507;51.046;6.406;2023-05-27T09:34:18;25.42;;;4.25;;
29574;SDS011;16507;51.046;6.406;2023-05-27T09:36:48;14.35;;;4.03;;
29574;SDS011;16507;51.046;6.406;2023-05-27T09:39:16;13.77;;;4.18;;
29574;SDS011;16507;51.046;6.406;2023-05-27T09:41:43;24.10;;;4.00;;
29574;SDS011;16507;51.046;6.406;2023-05-27T09:44:17;14.98;;;3.70;;
29574;SDS011;16507;51.046;6.406;2023-05-27T09:46:43;12.32;;;3.92;;
29574;SDS011;16507;51.046;6.406;2023-05-27T09:49:10;15.57;;;4.10;;
29574;SDS011;16507;51.046;6.406;2023-05-27T09:51:38;12.95;;;3.58;;
29574;SDS011;16507;51.046;6.406;2023-05-27T09:54:05;11.32;;;3.47;;
29574;SDS011;16507;51.046;6.406;2023-05-27T09:56:32;10.18;;;3.58;;
29574;SDS011;16507;51.046;6.406;2023-05-27T09:58:59;13.40;;;3.80;;
29574;SDS011;16507;51.046;6.406;2023-05-27T10:01:28;10.73;;;3.88;;
29574;SDS011;16507;51.046;6.406;2023-05-27T10:03:55;11.48;;;4.20;;
29574;SDS011;16507;51.046;6.406;2023-05-27T10:06:21;14.45;;;4.28;;
29574;SDS011;16507;51.046;6.406;2023-05-27T10:08:49;13.70;;;4.68;;
29574;SDS011;16507;51.046;6.406;2023-05-27T10:11:17;15.32;;;4.32;;
29574;SDS011;16507;51.046;6.406;2023-05-27T10:13:44;25.48;;;4.18;;
29574;SDS011;16507;51.046;6.406;2023-05-27T10:16:20;16.98;;;4.63;;
29574;SDS011;16507;51.046;6.406;2023-05-27T10:18:47;16.75;;;4.38;;
29574;SDS011;16507;51.046;6.406;2023-05-27T10:21:20;22.90;;;5.28;;
29574;SDS011;16507;51.046;6.406;2023-05-27T10:23:57;12.88;;;4.57;;
29574;SDS011;16507;51.046;6.406;2023-05-27T10:26:45;14.40;;;4.55;;
29574;SDS011;16507;51.046;6.406;2023-05-27T10:29:14;18.08;;;4.47;;
29574;SDS011;16507;51.046;6.406;2023-05-27T10:31:49;13.73;;;4.20;;
29574;SDS011;16507;51.046;6.406;2023-05-27T10:34:15;12.27;;;3.70;;
29574;SDS011;16507;51.046;6.406;2023-05-27T10:36:41;13.40;;;3.78;;
29574;SDS011;16507;51.046;6.406;2023-05-27T10:39:18;11.95;;;3.80;;
29574;SDS011;16507;51.046;6.406;2023-05-27T10:47:02;14.30;;;4.47;;
29574;SDS011;16507;51.046;6.406;2023-05-27T10:49:34;11.02;;;4.05;;
29574;SDS011;16507;51.046;6.406;2023-05-27T10:52:07;13.05;;;3.78;;
29574;SDS011;16507;51.046;6.406;2023-05-27T10:54:43;13.10;;;4.07;;
29574;SDS011;16507;51.046;6.406;2023-05-27T10:57:10;11.68;;;4.03;;
29574;SDS011;16507;51.046;6.406;2023-05-27T10:59:41;11.55;;;4.18;;
29574;SDS011;16507;51.046;6.406;2023-05-27T11:02:20;9.57;;;3.63;;
29574;SDS011;16507;51.046;6.406;2023-05-27T11:04:46;15.32;;;4.60;;
29574;SDS011;16507;51.046;6.406;2023-05-27T11:07:17;14.10;;;4.63;;
29574;SDS011;16507;51.046;6.406;2023-05-27T11:09:44;15.57;;;4.20;;
29574;SDS011;16507;51.046;6.406;2023-05-27T11:12:14;9.93;;;3.78;;
29574;SDS011;16507;51.046;6.406;2023-05-27T11:14:44;15.70;;;4.50;;
29574;SDS011;16507;51.046;6.406;2023-05-27T11:17:10;16.88;;;4.57;;
29574;SDS011;16507;51.046;6.406;2023-05-27T11:19:38;9.07;;;4.35;;
29574;SDS011;16507;51.046;6.406;2023-05-27T11:22:07;13.80;;;4.05;;
29574;SDS011;16507;51.046;6.406;2023-05-27T11:24:34;17.40;;;4.65;;
29574;SDS011;16507;51.046;6.406;2023-05-27T11:27:07;13.63;;;3.97;;
29574;SDS011;16507;51.046;6.406;2023-05-27T11:29:34;18.15;;;4.50;;
29574;SDS011;16507;51.046;6.406;2023-05-27T11:32:00;10.65;;;3.90;;
29574;SDS011;16507;51.046;6.406;2023-05-27T11:34:27;15.77;;;4.38;;
29574;SDS011;16507;51.046;6.406;2023-05-27T11:36:53;8.30;;;4.43;;
29574;SDS011;16507;51.046;6.406;2023-05-27T11:39:18;12.20;;;4.30;;
29574;SDS011;16507;51.046;6.406;2023-05-27T11:41:47;12.10;;;4.03;;
29574;SDS011;16507;51.046;6.406;2023-05-27T11:44:15;13.48;;;5.05;;
29574;SDS011;16507;51.046;6.406;2023-05-27T11:46:43;12.60;;;4.63;;
29574;SDS011;16507;51.046;6.406;2023-05-27T11:49:09;18.23;;;4.45;;
29574;SDS011;16507;51.046;6.406;2023-05-27T11:51:37;10.98;;;3.75;;
29574;SDS011;16507;51.046;6.406;2023-05-27T11:54:14;12.10;;;3.92;;
29574;SDS011;16507;51.046;6.406;2023-05-27T11:56:57;11.95;;;4.30;;
29574;SDS011;16507;51.046;6.406;2023-05-27T11:59:24;9.05;;;4.15;;
29574;SDS011;16507;51.046;6.406;2023-05-27T12:01:50;14.85;;;4.90;;
29574;SDS011;16507;51.046;6.406;2023-05-27T12:04:18;12.52;;;4.47;;
29574;SDS011;16507;51.046;6.406;2023-05-27T12:06:44;11.85;;;4.35;;
29574;SDS011;16507;51.046;6.406;2023-05-27T12:09:11;14.20;;;4.13;;
29574;SDS011;16507;51.046;6.406;2023-05-27T12:11:37;15.10;;;4.88;;
29574;SDS011;16507;51.046;6.406;2023-05-27T12:14:03;16.05;;;4.13;;
29574;SDS011;16507;51.046;6.406;2023-05-27T12:16:29;16.23;;;4.78;;
29574;SDS011;16507;51.046;6.406;2023-05-27T12:18:58;12.30;;;4.18;;
29574;SDS011;16507;51.046;6.406;2023-05-27T12:21:24;10.75;;;4.50;;
29574;SDS011;16507;51.046;6.406;2023-05-27T12:23:49;15.43;;;4.45;;
29574;SDS011;16507;51.046;6.406;2023-05-27T12:26:15;13.50;;;4.13;;
29574;SDS011;16507;51.046;6.406;2023-05-27T12:28:42;12.48;;;4.47;;
29574;SDS011;16507;51.046;6.406;2023-05-27T12:31:08;18.67;;;4.00;;
29574;SDS011;16507;51.046;6.406;2023-05-27T12:33:33;9.07;;;3.03;;
29574;SDS011;16507;51.046;6.406;2023-05-27T12:36:00;12.20;;;4.05;;
29574;SDS011;16507;51.046;6.406;2023-05-27T12:38:26;20.95;;;3.60;;
29574;SDS011;16507;51.046;6.406;2023-05-27T12:40:52;10.48;;;3.30;;
29574;SDS011;16507;51.046;6.406;2023-05-27T12:43:20;10.95;;;3.55;;
29574;SDS011;16507;51.046;6.406;2023-05-27T12:45:46;9.43;;;3.78;;
29574;SDS011;16507;51.046;6.406;2023-05-27T12:48:12;13.23;;;3.70;;
29574;SDS011;16507;51.046;6.406;2023-05-27T12:50:38;13.35;;;3.63;;
29574;SDS011;16507;51.046;6.406;2023-05-27T12:53:03;9.93;;;4.05;;
29574;SDS011;16507;51.046;6.406;2023-05-27T12:55:29;10.30;;;3.53;;
29574;SDS011;16507;51.046;6.406;2023-05-27T12:57:55;10.10;;;3.43;;
29574;SDS011;16507;51.046;6.406;2023-05-27T13:00:21;13.02;;;3.97;;
29574;SDS011;16507;51.046;6.406;2023-05-27T13:02:47;15.50;;;4.03;;
29574;SDS011;16507;51.046;6.406;2023-05-27T13:05:13;10.63;;;4.30;;
29574;SDS011;16507;51.046;6.406;2023-05-27T13:07:39;6.93;;;3.60;;
29574;SDS011;16507;51.046;6.406;2023-05-27T13:10:12;11.43;;;3.58;;
29574;SDS011;16507;51.046;6.406;2023-05-27T13:12:43;10.93;;;3.78;;
29574;SDS011;16507;51.046;6.406;2023-05-27T13:15:09;13.93;;;3.92;;
29574;SDS011;16507;51.046;6.406;2023-05-27T13:17:38;7.55;;;3.55;;
29574;SDS011;16507;51.046;6.406;2023-05-27T13:20:04;14.00;;;3.58;;
29574;SDS011;16507;51.046;6.406;2023-05-27T13:22:30;11.95;;;3.47;;
29574;SDS011;16507;51.046;6.406;2023-05-27T13:24:56;10.70;;;3.60;;
29574;SDS011;16507;51.046;6.406;2023-05-27T13:27:21;8.88;;;3.83;;
29574;SDS011;16507;51.046;6.406;2023-05-27T13:29:47;10.60;;;3.30;;
29574;SDS011;16507;51.046;6.406;2023-05-27T13:32:13;10.75;;;3.28;;
29574;SDS011;16507;51.046;6.406;2023-05-27T13:34:39;8.85;;;3.50;;
29574;SDS011;16507;51.046;6.406;2023-05-27T13:37:05;7.32;;;3.25;;
29574;SDS011;16507;51.046;6.406;2023-05-27T13:39:31;9.27;;;3.63;;
29574;SDS011;16507;51.046;6.406;2023-05-27T13:41:57;7.07;;;2.85;;
29574;SDS011;16507;51.046;6.406;2023-05-27T13:44:23;9.70;;;3.92;;
29574;SDS011;16507;51.046;6.406;2023-05-27T13:46:49;7.97;;;3.70;;
29574;SDS011;16507;51.046;6.406;2023-05-27T13:49:15;10.25;;;3.70;;
29574;SDS011;16507;51.046;6.406;2023-05-27T13:51:44;22.95;;;3.60;;
29574;SDS011;16507;51.046;6.406;2023-05-27T13:54:11;14.70;;;3.65;;
29574;SDS011;16507;51.046;6.406;2023-05-27T13:56:37;12.43;;;3.80;;
29574;SDS011;16507;51.046;6.406;2023-05-27T13:59:03;9.15;;;3.35;;
29574;SDS011;16507;51.046;6.406;2023-05-27T14:01:30;11.55;;;3.55;;
29574;SDS011;16507;51.046;6.406;2023-05-27T14:03:56;10.80;;;3.67;;
29574;SDS011;16507;51.046;6.406;2023-05-27T14:06:22;7.18;;;3.30;;
29574;SDS011;16507;51.046;6.406;2023-05-27T14:08:48;8.07;;;3.55;;
29574;SDS011;16507;51.046;6.406;2023-05-27T14:11:13;8.65;;;3.67;;
29574;SDS011;16507;51.046;6.406;2023-05-27T14:13:39;18.13;;;3.42;;
29574;SDS011;16507;51.046;6.406;2023-05-27T14:16:06;9.35;;;3.13;;
29574;SDS011;16507;51.046;6.406;2023-05-27T14:18:35;10.07;;;3.33;;
29574;SDS011;16507;51.046;6.406;2023-05-27T14:21:01;7.35;;;3.20;;
29574;SDS011;16507;51.046;6.406;2023-05-27T14:23:26;11.48;;;3.63;;
29574;SDS011;16507;51.046;6.406;2023-05-27T14:25:52;8.15;;;3.08;;
29574;SDS011;16507;51.046;6.406;2023-05-27T14:28:18;12.68;;;4.10;;
29574;SDS011;16507;51.046;6.406;2023-05-27T14:30:43;10.20;;;3.65;;
29574;SDS011;16507;51.046;6.406;2023-05-27T14:33:09;11.88;;;4.00;;
29574;SDS011;16507;51.046;6.406;2023-05-27T14:35:38;10.05;;;3.22;;
29574;SDS011;16507;51.046;6.406;2023-05-27T14:38:04;11.57;;;4.35;;
29574;SDS011;16507;51.046;6.406;2023-05-27T14:40:31;12.88;;;3.97;;
29574;SDS011;16507;51.046;6.406;2023-05-27T14:42:57;8.60;;;3.40;;
29574;SDS011;16507;51.046;6.406;2023-05-27T14:45:23;51.95;;;5.50;;
29574;SDS011;16507;51.046;6.406;2023-05-27T14:47:49;7.55;;;3.50;;